sensor_id;sensor_type;location;lat;lon;timestamp;P1;durP1;ratioP1;P2;durP2;ratioP2
11111;SDS011;5609;49.466;8.468;2024-03-23T00:55:46;11.90;;;9.60;;
11111;SDS011;5609;49.466;8.468;2024-03-23T00:58:12;10.23;;;9.23;;
11111;SDS011;5609;49.466;8.468;2024-03-23T01:00:39;10.57;;;9.53;;
11111;SDS011;5609;49.466;8.468;2024-03-23T01:03:05;11.53;;;9.37;;
11111;SDS011;5609;49.466;8.468;2024-03-23T01:05:32;10.43;;;9.20;;
11111;SDS011;5609;49.466;8.468;2024-03-23T01:07:58;11.17;;;10.03;;
11111;SDS011;5609;49.466;8.468;2024-03-23T01:10:24;10.73;;;9.63;;
11111;SDS011;5609;49.466;8.468;2024-03-23T01:12:52;10.77;;;9.57;;
11111;SDS011;5609;49.466;8.468;2024-03-23T01:15:18;12.37;;;10.13;;
11111;SDS011;5609;49.466;8.468;2024-03-23T01:17:44;10.33;;;9.10;;
11111;SDS011;5609;49.466;8.468;2024-03-23T01:20:11;10.70;;;9.47;;
11111;SDS011;5609;49.466;8.468;2024-03-23T01:22:37;9.83;;;8.83;;
11111;SDS011;5609;49.466;8.468;2024-03-23T01:25:04;12.57;;;9.23;;
11111;SDS011;5609;49.466;8.468;2024-03-23T01:27:30;10.37;;;9.33;;
11111;SDS011;5609;49.466;8.468;2024-03-23T01:29:59;10.90;;;9.80;;
11111;SDS011;5609;49.466;8.468;2024-03-23T01:32:25;10.13;;;8.90;;
11111;SDS011;5609;49.466;8.468;2024-03-23T01:34:51;11.63;;;9.80;;
11111;SDS011;5609;49.466;8.468;2024-03-23T01:37:17;10.47;;;9.40;;
11111;SDS011;5609;49.466;8.468;2024-03-23T01:39:44;10.43;;;9.17;;
11111;SDS011;5609;49.466;8.468;2024-03-23T01:42:10;10.37;;;9.37;;
11111;SDS011;5609;49.466;8.468;2024-03-23T01:44:37;10.57;;;9.57;;
11111;SDS011;5609;49.466;8.468;2024-03-23T01:47:04;10.93;;;9.40;;
11111;SDS011;5609;49.466;8.468;2024-03-23T01:49:32;9.93;;;8.93;;
11111;SDS011;5609;49.466;8.468;2024-03-23T01:51:58;13.33;;;9.30;;
11111;SDS011;5609;49.466;8.468;2024-03-23T01:54:25;9.77;;;8.83;;
11111;SDS011;5609;49.466;8.468;2024-03-23T01:56:52;9.63;;;8.67;;
11111;SDS011;5609;49.466;8.468;2024-03-23T01:59:20;9.93;;;8.90;;
11111;SDS011;5609;49.466;8.468;2024-03-23T02:01:46;10.03;;;8.60;;
11111;SDS011;5609;49.466;8.468;2024-03-23T02:04:14;9.40;;;8.23;;
11111;SDS011;5609;49.466;8.468;2024-03-23T02:06:40;10.00;;;8.80;;
11111;SDS011;5609;49.466;8.468;2024-03-23T02:09:09;9.53;;;8.50;;
11111;SDS011;5609;49.466;8.468;2024-03-23T02:11:34;9.63;;;8.30;;
11111;SDS011;5609;49.466;8.468;2024-03-23T02:14:02;8.87;;;7.87;;
11111;SDS011;5609;49.466;8.468;2024-03-23T02:16:28;8.27;;;7.50;;
11111;SDS011;5609;49.466;8.468;2024-03-23T02:18:55;8.67;;;7.87;;
11111;SDS011;5609;49.466;8.468;2024-03-23T02:21:22;9.07;;;8.17;;
11111;SDS011;5609;49.466;8.468;2024-03-23T02:23:50;11.10;;;7.60;;
11111;SDS011;5609;49.466;8.468;2024-03-23T02:26:16;8.93;;;7.73;;
11111;SDS011;5609;49.466;8.468;2024-03-23T02:28:42;8.73;;;7.80;;
11111;SDS011;5609;49.466;8.468;2024-03-23T02:31:08;8.70;;;7.80;;
11111;SDS011;5609;49.466;8.468;2024-03-23T02:33:35;9.73;;;7.70;;
11111;SDS011;5609;49.466;8.468;2024-03-23T02:36:03;9.70;;;7.60;;
11111;SDS011;5609;49.466;8.468;2024-03-23T02:38:30;9.03;;;8.07;;
11111;SDS011;5609;49.466;8.468;2024-03-23T02:41:02;9.57;;;8.53;;
11111;SDS011;5609;49.466;8.468;2024-03-23T02:43:29;11.57;;;9.70;;
11111;SDS011;5609;49.466;8.468;2024-03-23T02:45:55;11.83;;;9.57;;
11111;SDS011;5609;49.466;8.468;2024-03-23T02:48:22;15.67;;;10.23;;
11111;SDS011;5609;49.466;8.468;2024-03-23T02:50:48;12.13;;;10.10;;
11111;SDS011;5609;49.466;8.468;2024-03-23T02:53:15;15.87;;;10.50;;
11111;SDS011;5609;49.466;8.468;2024-03-23T02:55:41;15.43;;;11.57;;
11111;SDS011;5609;49.466;8.468;2024-03-23T02:58:09;17.47;;;11.20;;
11111;SDS011;5609;49.466;8.468;2024-03-23T03:00:35;17.07;;;12.77;;
11111;SDS011;5609;49.466;8.468;2024-03-23T03:03:02;18.10;;;13.57;;
11111;SDS011;5609;49.466;8.468;2024-03-23T03:05:28;19.60;;;14.13;;
11111;SDS011;5609;49.466;8.468;2024-03-23T03:07:55;17.83;;;13.80;;
11111;SDS011;5609;49.466;8.468;2024-03-23T03:10:21;17.93;;;13.23;;
11111;SDS011;5609;49.466;8.468;2024-03-23T03:12:49;19.90;;;12.30;;
11111;SDS011;5609;49.466;8.468;2024-03-23T03:15:16;17.20;;;12.10;;
11111;SDS011;5609;49.466;8.468;2024-03-23T03:17:43;17.23;;;12.80;;
11111;SDS011;5609;49.466;8.468;2024-03-23T03:20:10;13.57;;;11.77;;
11111;SDS011;5609;49.466;8.468;2024-03-23T03:22:39;16.37;;;11.00;;
11111;SDS011;5609;49.466;8.468;2024-03-23T03:25:05;15.17;;;11.20;;
11111;SDS011;5609;49.466;8.468;2024-03-23T03:27:33;13.30;;;10.47;;
11111;SDS011;5609;49.466;8.468;2024-03-23T03:29:59;15.67;;;10.53;;
11111;SDS011;5609;49.466;8.468;2024-03-23T03:32:29;12.90;;;10.30;;
11111;SDS011;5609;49.466;8.468;2024-03-23T03:34:54;14.23;;;10.80;;
11111;SDS011;5609;49.466;8.468;2024-03-23T03:37:21;16.83;;;11.83;;
11111;SDS011;5609;49.466;8.468;2024-03-23T03:39:47;13.67;;;12.10;;
11111;SDS011;5609;49.466;8.468;2024-03-23T03:42:14;14.90;;;11.43;;
11111;SDS011;5609;49.466;8.468;2024-03-23T03:44:41;13.23;;;10.87;;
11111;SDS011;5609;49.466;8.468;2024-03-23T03:47:08;14.47;;;10.40;;
11111;SDS011;5609;49.466;8.468;2024-03-23T03:49:38;11.93;;;10.17;;
11111;SDS011;5609;49.466;8.468;2024-03-23T03:52:05;12.70;;;10.43;;
11111;SDS011;5609;49.466;8.468;2024-03-23T03:54:31;11.90;;;10.00;;
11111;SDS011;5609;49.466;8.468;2024-03-23T03:56:58;13.20;;;11.17;;
11111;SDS011;5609;49.466;8.468;2024-03-23T03:59:24;14.17;;;11.27;;
11111;SDS011;5609;49.466;8.468;2024-03-23T04:01:50;15.23;;;11.53;;
11111;SDS011;5609;49.466;8.468;2024-03-23T04:04:16;17.40;;;12.97;;
11111;SDS011;5609;49.466;8.468;2024-03-23T04:06:46;15.70;;;12.57;;
11111;SDS011;5609;49.466;8.468;2024-03-23T04:09:11;17.53;;;13.70;;
11111;SDS011;5609;49.466;8.468;2024-03-23T04:11:38;15.13;;;12.30;;
11111;SDS011;5609;49.466;8.468;2024-03-23T04:14:04;17.93;;;12.20;;
11111;SDS011;5609;49.466;8.468;2024-03-23T04:16:33;15.17;;;11.73;;
11111;SDS011;5609;49.466;8.468;2024-03-23T04:19:00;18.33;;;11.90;;
11111;SDS011;5609;49.466;8.468;2024-03-23T04:21:27;15.53;;;12.33;;
11111;SDS011;5609;49.466;8.468;2024-03-23T04:23:55;15.73;;;11.47;;
11111;SDS011;5609;49.466;8.468;2024-03-23T04:26:22;15.63;;;11.80;;
11111;SDS011;5609;49.466;8.468;2024-03-23T04:28:48;13.93;;;11.20;;
11111;SDS011;5609;49.466;8.468;2024-03-23T04:31:15;14.00;;;10.60;;
11111;SDS011;5609;49.466;8.468;2024-03-23T04:33:40;12.57;;;9.80;;
11111;SDS011;5609;49.466;8.468;2024-03-23T04:36:07;14.83;;;10.33;;
11111;SDS011;5609;49.466;8.468;2024-03-23T04:38:33;15.03;;;10.10;;
11111;SDS011;5609;49.466;8.468;2024-03-23T04:41:01;10.60;;;9.10;;
11111;SDS011;5609;49.466;8.468;2024-03-23T04:43:28;11.83;;;9.00;;
11111;SDS011;5609;49.466;8.468;2024-03-23T04:45:54;13.10;;;8.83;;
11111;SDS011;5609;49.466;8.468;2024-03-23T04:48:21;12.53;;;9.40;;
11111;SDS011;5609;49.466;8.468;2024-03-23T04:50:48;9.33;;;8.33;;
11111;SDS011;5609;49.466;8.468;2024-03-23T04:53:15;8.87;;;7.90;;
11111;SDS011;5609;49.466;8.468;2024-03-23T04:55:41;9.30;;;7.47;;
11111;SDS011;5609;49.466;8.468;2024-03-23T04:58:10;8.63;;;6.67;;
11111;SDS011;5609;49.466;8.468;2024-03-23T05:00:36;9.03;;;6.13;;
11111;SDS011;5609;49.466;8.468;2024-03-23T05:03:03;6.93;;;5.83;;
11111;SDS011;5609;49.466;8.468;2024-03-23T05:05:29;6.90;;;5.40;;
11111;SDS011;5609;49.466;8.468;2024-03-23T05:07:56;6.10;;;5.33;;
11111;SDS011;5609;49.466;8.468;2024-03-23T05:10:22;5.97;;;4.67;;
11111;SDS011;5609;49.466;8.468;2024-03-23T05:12:49;5.00;;;3.90;;
11111;SDS011;5609;49.466;8.468;2024-03-23T05:15:17;4.73;;;3.70;;
11111;SDS011;5609;49.466;8.468;2024-03-23T05:17:45;3.60;;;3.30;;
11111;SDS011;5609;49.466;8.468;2024-03-23T05:20:11;3.10;;;2.80;;
11111;SDS011;5609;49.466;8.468;2024-03-23T05:22:41;4.13;;;2.10;;
11111;SDS011;5609;49.466;8.468;2024-03-23T05:25:07;5.17;;;1.97;;
11111;SDS011;5609;49.466;8.468;2024-03-23T05:27:34;4.03;;;2.73;;
11111;SDS011;5609;49.466;8.468;2024-03-23T05:30:01;3.53;;;3.23;;
11111;SDS011;5609;49.466;8.468;2024-03-23T05:32:32;4.53;;;3.50;;
11111;SDS011;5609;49.466;8.468;2024-03-23T05:34:58;6.40;;;3.40;;
11111;SDS011;5609;49.466;8.468;2024-03-23T05:37:25;3.10;;;2.80;;
11111;SDS011;5609;49.466;8.468;2024-03-23T05:39:52;2.40;;;2.20;;
11111;SDS011;5609;49.466;8.468;2024-03-23T05:42:18;2.33;;;2.13;;
11111;SDS011;5609;49.466;8.468;2024-03-23T05:44:44;2.10;;;1.87;;
11111;SDS011;5609;49.466;8.468;2024-03-23T05:47:12;2.63;;;1.90;;
11111;SDS011;5609;49.466;8.468;2024-03-23T05:49:41;1.93;;;1.83;;
11111;SDS011;5609;49.466;8.468;2024-03-23T05:52:08;2.77;;;1.90;;
11111;SDS011;5609;49.466;8.468;2024-03-23T05:54:35;1.83;;;1.73;;
11111;SDS011;5609;49.466;8.468;2024-03-23T05:57:01;2.67;;;1.90;;
11111;SDS011;5609;49.466;8.468;2024-03-23T05:59:28;2.53;;;2.07;;
11111;SDS011;5609;49.466;8.468;2024-03-23T06:01:54;2.20;;;2.07;;
11111;SDS011;5609;49.466;8.468;2024-03-23T06:04:21;2.40;;;2.20;;
11111;SDS011;5609;49.466;8.468;2024-03-23T06:06:50;2.17;;;1.97;;
11111;SDS011;5609;49.466;8.468;2024-03-23T06:09:17;2.20;;;2.00;;
11111;SDS011;5609;49.466;8.468;2024-03-23T06:11:44;2.20;;;2.00;;
11111;SDS011;5609;49.466;8.468;2024-03-23T06:14:11;1.90;;;1.70;;
11111;SDS011;5609;49.466;8.468;2024-03-23T06:16:39;2.33;;;1.50;;
11111;SDS011;5609;49.466;8.468;2024-03-23T06:19:05;1.50;;;1.40;;
11111;SDS011;5609;49.466;8.468;2024-03-23T06:21:31;1.30;;;1.20;;
11111;SDS011;5609;49.466;8.468;2024-03-23T06:24:01;1.40;;;1.30;;
11111;SDS011;5609;49.466;8.468;2024-03-23T06:26:27;1.00;;;1.00;;
11111;SDS011;5609;49.466;8.468;2024-03-23T06:28:54;1.20;;;0.90;;
11111;SDS011;5609;49.466;8.468;2024-03-23T06:31:21;0.93;;;0.93;;
11111;SDS011;5609;49.466;8.468;2024-03-23T06:33:47;2.00;;;0.97;;
11111;SDS011;5609;49.466;8.468;2024-03-23T06:36:13;0.80;;;0.80;;
11111;SDS011;5609;49.466;8.468;2024-03-23T06:38:40;1.53;;;1.00;;
11111;SDS011;5609;49.466;8.468;2024-03-23T06:41:08;1.67;;;0.97;;
11111;SDS011;5609;49.466;8.468;2024-03-23T06:43:36;0.50;;;0.50;;
11111;SDS011;5609;49.466;8.468;2024-03-23T06:46:03;0.50;;;0.50;;
11111;SDS011;5609;49.466;8.468;2024-03-23T06:48:30;0.30;;;0.30;;
11111;SDS011;5609;49.466;8.468;2024-03-23T06:50:56;0.40;;;0.40;;
11111;SDS011;5609;49.466;8.468;2024-03-23T06:53:23;0.77;;;0.60;;
11111;SDS011;5609;49.466;8.468;2024-03-23T06:55:53;0.63;;;0.50;;
11111;SDS011;5609;49.466;8.468;2024-03-23T06:58:23;8.73;;;1.20;;
11111;SDS011;5609;49.466;8.468;2024-03-23T07:00:49;0.47;;;0.47;;
11111;SDS011;5609;49.466;8.468;2024-03-23T07:03:17;1.13;;;0.50;;
11111;SDS011;5609;49.466;8.468;2024-03-23T07:05:43;0.33;;;0.33;;
11111;SDS011;5609;49.466;8.468;2024-03-23T07:08:11;0.50;;;0.50;;
11111;SDS011;5609;49.466;8.468;2024-03-23T07:10:38;1.03;;;0.47;;
11111;SDS011;5609;49.466;8.468;2024-03-23T07:13:06;0.87;;;0.60;;
11111;SDS011;5609;49.466;8.468;2024-03-23T07:15:35;0.73;;;0.50;;
11111;SDS011;5609;49.466;8.468;2024-03-23T07:18:02;1.67;;;0.67;;
11111;SDS011;5609;49.466;8.468;2024-03-23T07:20:28;0.40;;;0.37;;
11111;SDS011;5609;49.466;8.468;2024-03-23T07:22:55;1.67;;;0.57;;
11111;SDS011;5609;49.466;8.468;2024-03-23T07:25:21;0.43;;;0.40;;
11111;SDS011;5609;49.466;8.468;2024-03-23T07:27:48;2.10;;;0.60;;
11111;SDS011;5609;49.466;8.468;2024-03-23T07:30:14;1.77;;;0.70;;
11111;SDS011;5609;49.466;8.468;2024-03-23T07:32:42;0.50;;;0.50;;
11111;SDS011;5609;49.466;8.468;2024-03-23T07:35:09;1.30;;;0.73;;
11111;SDS011;5609;49.466;8.468;2024-03-23T07:37:36;1.13;;;0.73;;
11111;SDS011;5609;49.466;8.468;2024-03-23T07:40:02;0.90;;;0.80;;
11111;SDS011;5609;49.466;8.468;2024-03-23T07:42:32;2.80;;;0.77;;
11111;SDS011;5609;49.466;8.468;2024-03-23T07:44:57;2.43;;;0.90;;
11111;SDS011;5609;49.466;8.468;2024-03-23T07:47:24;3.00;;;1.27;;
11111;SDS011;5609;49.466;8.468;2024-03-23T07:49:51;2.50;;;1.40;;
11111;SDS011;5609;49.466;8.468;2024-03-23T07:52:18;2.23;;;1.50;;
11111;SDS011;5609;49.466;8.468;2024-03-23T07:54:46;2.57;;;1.27;;
11111;SDS011;5609;49.466;8.468;2024-03-23T07:57:13;2.87;;;1.60;;
11111;SDS011;5609;49.466;8.468;2024-03-23T07:59:39;2.60;;;1.50;;
11111;SDS011;5609;49.466;8.468;2024-03-23T08:02:13;3.07;;;1.33;;
11111;SDS011;5609;49.466;8.468;2024-03-23T08:04:39;2.70;;;1.43;;
11111;SDS011;5609;49.466;8.468;2024-03-23T08:07:07;2.80;;;1.40;;
11111;SDS011;5609;49.466;8.468;2024-03-23T08:09:33;3.47;;;1.60;;
11111;SDS011;5609;49.466;8.468;2024-03-23T08:11:59;1.97;;;1.30;;
11111;SDS011;5609;49.466;8.468;2024-03-23T08:14:25;2.27;;;1.30;;
11111;SDS011;5609;49.466;8.468;2024-03-23T08:16:53;2.50;;;1.27;;
11111;SDS011;5609;49.466;8.468;2024-03-23T08:19:19;4.47;;;1.60;;
11111;SDS011;5609;49.466;8.468;2024-03-23T08:21:46;3.63;;;1.60;;
11111;SDS011;5609;49.466;8.468;2024-03-23T08:24:13;3.50;;;1.60;;
11111;SDS011;5609;49.466;8.468;2024-03-23T08:26:40;4.27;;;2.00;;
11111;SDS011;5609;49.466;8.468;2024-03-23T08:29:06;3.17;;;1.60;;
11111;SDS011;5609;49.466;8.468;2024-03-23T08:31:32;4.87;;;1.87;;
11111;SDS011;5609;49.466;8.468;2024-03-23T08:34:01;4.53;;;1.93;;
11111;SDS011;5609;49.466;8.468;2024-03-23T08:36:28;5.37;;;1.90;;
11111;SDS011;5609;49.466;8.468;2024-03-23T08:38:55;4.10;;;1.70;;
11111;SDS011;5609;49.466;8.468;2024-03-23T08:41:23;3.63;;;2.00;;
11111;SDS011;5609;49.466;8.468;2024-03-23T08:43:49;6.30;;;1.70;;
11111;SDS011;5609;49.466;8.468;2024-03-23T08:46:17;5.23;;;2.00;;
11111;SDS011;5609;49.466;8.468;2024-03-23T08:48:43;5.60;;;2.20;;
11111;SDS011;5609;49.466;8.468;2024-03-23T08:51:13;4.63;;;2.13;;
11111;SDS011;5609;49.466;8.468;2024-03-23T08:53:41;5.40;;;2.17;;
11111;SDS011;5609;49.466;8.468;2024-03-23T08:56:08;4.43;;;1.80;;
11111;SDS011;5609;49.466;8.468;2024-03-23T08:58:36;4.60;;;2.10;;
11111;SDS011;5609;49.466;8.468;2024-03-23T09:01:05;4.50;;;2.07;;
11111;SDS011;5609;49.466;8.468;2024-03-23T09:03:32;4.50;;;2.10;;
11111;SDS011;5609;49.466;8.468;2024-03-23T09:06:00;3.63;;;2.13;;
11111;SDS011;5609;49.466;8.468;2024-03-23T09:08:27;4.17;;;2.50;;
11111;SDS011;5609;49.466;8.468;2024-03-23T09:10:54;4.80;;;2.50;;
11111;SDS011;5609;49.466;8.468;2024-03-23T09:13:19;4.73;;;2.50;;
11111;SDS011;5609;49.466;8.468;2024-03-23T09:15:48;4.17;;;2.47;;
11111;SDS011;5609;49.466;8.468;2024-03-23T09:18:15;4.70;;;2.40;;
11111;SDS011;5609;49.466;8.468;2024-03-23T09:20:42;5.00;;;2.20;;
11111;SDS011;5609;49.466;8.468;2024-03-23T09:23:08;5.33;;;2.03;;
11111;SDS011;5609;49.466;8.468;2024-03-23T09:25:38;5.13;;;2.50;;
11111;SDS011;5609;49.466;8.468;2024-03-23T09:28:04;4.63;;;2.17;;
11111;SDS011;5609;49.466;8.468;2024-03-23T09:30:33;4.07;;;2.50;;
11111;SDS011;5609;49.466;8.468;2024-03-23T09:33:01;6.40;;;2.63;;
11111;SDS011;5609;49.466;8.468;2024-03-23T09:35:29;5.10;;;2.60;;
11111;SDS011;5609;49.466;8.468;2024-03-23T09:37:55;6.37;;;2.70;;
11111;SDS011;5609;49.466;8.468;2024-03-23T09:40:22;5.97;;;2.43;;
11111;SDS011;5609;49.466;8.468;2024-03-23T09:42:49;6.67;;;2.50;;
11111;SDS011;5609;49.466;8.468;2024-03-23T09:45:17;4.80;;;2.30;;
11111;SDS011;5609;49.466;8.468;2024-03-23T09:47:45;4.70;;;2.73;;
11111;SDS011;5609;49.466;8.468;2024-03-23T09:50:13;4.57;;;2.10;;
11111;SDS011;5609;49.466;8.468;2024-03-23T09:52:39;5.00;;;2.20;;
11111;SDS011;5609;49.466;8.468;2024-03-23T09:55:07;4.60;;;2.10;;
11111;SDS011;5609;49.466;8.468;2024-03-23T09:57:33;4.20;;;2.50;;
11111;SDS011;5609;49.466;8.468;2024-03-23T10:00:00;7.47;;;2.57;;
11111;SDS011;5609;49.466;8.468;2024-03-23T10:02:28;4.97;;;2.30;;
11111;SDS011;5609;49.466;8.468;2024-03-23T10:04:55;5.97;;;2.80;;
11111;SDS011;5609;49.466;8.468;2024-03-23T10:07:25;4.87;;;2.10;;
11111;SDS011;5609;49.466;8.468;2024-03-23T10:09:54;5.37;;;2.50;;
11111;SDS011;5609;49.466;8.468;2024-03-23T10:12:20;5.37;;;2.10;;
11111;SDS011;5609;49.466;8.468;2024-03-23T10:14:48;4.40;;;2.27;;
11111;SDS011;5609;49.466;8.468;2024-03-23T10:17:17;4.03;;;1.87;;
11111;SDS011;5609;49.466;8.468;2024-03-23T10:19:44;3.87;;;1.70;;
11111;SDS011;5609;49.466;8.468;2024-03-23T10:22:13;5.53;;;2.20;;
11111;SDS011;5609;49.466;8.468;2024-03-23T10:24:41;4.67;;;1.90;;
11111;SDS011;5609;49.466;8.468;2024-03-23T10:27:08;7.27;;;2.03;;
11111;SDS011;5609;49.466;8.468;2024-03-23T10:29:33;2.93;;;1.60;;
11111;SDS011;5609;49.466;8.468;2024-03-23T10:32:11;3.80;;;1.70;;
11111;SDS011;5609;49.466;8.468;2024-03-23T10:34:38;5.57;;;2.27;;
11111;SDS011;5609;49.466;8.468;2024-03-23T10:37:06;4.30;;;1.90;;
11111;SDS011;5609;49.466;8.468;2024-03-23T10:39:32;3.93;;;2.00;;
11111;SDS011;5609;49.466;8.468;2024-03-23T10:42:06;4.83;;;2.00;;
11111;SDS011;5609;49.466;8.468;2024-03-23T10:44:33;5.93;;;1.93;;
11111;SDS011;5609;49.466;8.468;2024-03-23T10:47:00;4.53;;;1.83;;
11111;SDS011;5609;49.466;8.468;2024-03-23T10:49:28;5.50;;;2.10;;
11111;SDS011;5609;49.466;8.468;2024-03-23T10:51:59;5.63;;;1.90;;
11111;SDS011;5609;49.466;8.468;2024-03-23T10:54:25;5.80;;;1.97;;
11111;SDS011;5609;49.466;8.468;2024-03-23T10:56:57;5.27;;;1.80;;
11111;SDS011;5609;49.466;8.468;2024-03-23T10:59:30;4.33;;;1.80;;
11111;SDS011;5609;49.466;8.468;2024-03-23T11:01:57;4.30;;;1.80;;
11111;SDS011;5609;49.466;8.468;2024-03-23T11:04:31;4.00;;;1.83;;
11111;SDS011;5609;49.466;8.468;2024-03-23T11:06:59;4.67;;;2.00;;
11111;SDS011;5609;49.466;8.468;2024-03-23T11:09:38;4.70;;;1.90;;
11111;SDS011;5609;49.466;8.468;2024-03-23T11:12:14;4.60;;;1.90;;
11111;SDS011;5609;49.466;8.468;2024-03-23T11:14:53;5.23;;;1.90;;
11111;SDS011;5609;49.466;8.468;2024-03-23T11:17:20;6.20;;;1.70;;
11111;SDS011;5609;49.466;8.468;2024-03-23T11:19:52;4.50;;;1.80;;
11111;SDS011;5609;49.466;8.468;2024-03-23T11:25:12;4.63;;;1.90;;
11111;SDS011;5609;49.466;8.468;2024-03-23T11:27:39;6.47;;;2.30;;
11111;SDS011;5609;49.466;8.468;2024-03-23T11:30:14;5.00;;;2.10;;
11111;SDS011;5609;49.466;8.468;2024-03-23T11:32:42;4.93;;;2.13;;
11111;SDS011;5609;49.466;8.468;2024-03-23T11:35:09;3.47;;;1.80;;
11111;SDS011;5609;49.466;8.468;2024-03-23T11:37:36;5.00;;;1.97;;
11111;SDS011;5609;49.466;8.468;2024-03-23T11:40:18;4.60;;;1.73;;
11111;SDS011;5609;49.466;8.468;2024-03-23T11:42:45;5.00;;;1.80;;
11111;SDS011;5609;49.466;8.468;2024-03-23T11:45:12;3.13;;;1.67;;
11111;SDS011;5609;49.466;8.468;2024-03-23T11:47:42;4.50;;;2.00;;
11111;SDS011;5609;49.466;8.468;2024-03-23T11:50:09;5.47;;;2.03;;
11111;SDS011;5609;49.466;8.468;2024-03-23T11:52:35;4.97;;;2.10;;
11111;SDS011;5609;49.466;8.468;2024-03-23T11:55:05;5.03;;;2.07;;
11111;SDS011;5609;49.466;8.468;2024-03-23T11:57:33;2.27;;;1.83;;
11111;SDS011;5609;49.466;8.468;2024-03-23T12:02:52;4.17;;;2.13;;
11111;SDS011;5609;49.466;8.468;2024-03-23T12:05:21;4.43;;;2.10;;
11111;SDS011;5609;49.466;8.468;2024-03-23T12:07:47;3.97;;;2.10;;
11111;SDS011;5609;49.466;8.468;2024-03-23T12:10:14;4.50;;;2.20;;
11111;SDS011;5609;49.466;8.468;2024-03-23T12:12:45;3.93;;;1.97;;
11111;SDS011;5609;49.466;8.468;2024-03-23T12:15:12;3.43;;;2.10;;
11111;SDS011;5609;49.466;8.468;2024-03-23T12:17:41;4.43;;;2.33;;
11111;SDS011;5609;49.466;8.468;2024-03-23T12:20:10;9.37;;;4.57;;
11111;SDS011;5609;49.466;8.468;2024-03-23T12:22:36;3.40;;;2.57;;
11111;SDS011;5609;49.466;8.468;2024-03-23T12:25:03;6.00;;;2.93;;
11111;SDS011;5609;49.466;8.468;2024-03-23T12:27:29;3.93;;;2.03;;
11111;SDS011;5609;49.466;8.468;2024-03-23T12:29:56;4.10;;;1.83;;
11111;SDS011;5609;49.466;8.468;2024-03-23T12:32:23;3.20;;;1.50;;
11111;SDS011;5609;49.466;8.468;2024-03-23T12:34:50;3.77;;;1.70;;
11111;SDS011;5609;49.466;8.468;2024-03-23T12:37:19;3.80;;;1.60;;
11111;SDS011;5609;49.466;8.468;2024-03-23T12:39:46;2.63;;;1.53;;
11111;SDS011;5609;49.466;8.468;2024-03-23T12:42:11;1.77;;;1.50;;
11111;SDS011;5609;49.466;8.468;2024-03-23T12:44:39;2.60;;;1.37;;
11111;SDS011;5609;49.466;8.468;2024-03-23T12:47:06;2.77;;;1.40;;
11111;SDS011;5609;49.466;8.468;2024-03-23T12:49:36;2.10;;;1.30;;
11111;SDS011;5609;49.466;8.468;2024-03-23T12:52:01;5.33;;;1.43;;
11111;SDS011;5609;49.466;8.468;2024-03-23T12:54:31;3.73;;;1.30;;
11111;SDS011;5609;49.466;8.468;2024-03-23T12:56:56;4.30;;;1.20;;
11111;SDS011;5609;49.466;8.468;2024-03-23T12:59:25;5.00;;;0.90;;
11111;SDS011;5609;49.466;8.468;2024-03-23T13:01:53;4.07;;;1.07;;
11111;SDS011;5609;49.466;8.468;2024-03-23T13:04:20;1.33;;;0.80;;
11111;SDS011;5609;49.466;8.468;2024-03-23T13:06:46;2.90;;;1.13;;
11111;SDS011;5609;49.466;8.468;2024-03-23T13:09:13;2.67;;;1.20;;
11111;SDS011;5609;49.466;8.468;2024-03-23T13:11:40;3.23;;;1.40;;
11111;SDS011;5609;49.466;8.468;2024-03-23T13:14:07;2.47;;;1.30;;
11111;SDS011;5609;49.466;8.468;2024-03-23T13:16:33;3.50;;;1.33;;
11111;SDS011;5609;49.466;8.468;2024-03-23T13:18:59;1.57;;;0.90;;
11111;SDS011;5609;49.466;8.468;2024-03-23T13:21:26;4.03;;;1.40;;
11111;SDS011;5609;49.466;8.468;2024-03-23T13:23:52;2.17;;;1.20;;
11111;SDS011;5609;49.466;8.468;2024-03-23T13:26:18;4.43;;;1.30;;
11111;SDS011;5609;49.466;8.468;2024-03-23T13:28:47;1.17;;;1.07;;
11111;SDS011;5609;49.466;8.468;2024-03-23T13:31:13;1.93;;;0.83;;
11111;SDS011;5609;49.466;8.468;2024-03-23T13:33:39;3.80;;;1.20;;
11111;SDS011;5609;49.466;8.468;2024-03-23T13:36:07;1.37;;;0.90;;
11111;SDS011;5609;49.466;8.468;2024-03-23T13:38:34;2.43;;;1.00;;
11111;SDS011;5609;49.466;8.468;2024-03-23T13:41:00;1.73;;;1.10;;
11111;SDS011;5609;49.466;8.468;2024-03-23T13:43:29;3.33;;;1.00;;
11111;SDS011;5609;49.466;8.468;2024-03-23T13:45:58;1.87;;;1.10;;
11111;SDS011;5609;49.466;8.468;2024-03-23T13:48:26;3.33;;;1.23;;
11111;SDS011;5609;49.466;8.468;2024-03-23T13:50:58;2.97;;;1.10;;
11111;SDS011;5609;49.466;8.468;2024-03-23T13:53:25;2.40;;;1.00;;
11111;SDS011;5609;49.466;8.468;2024-03-23T13:55:51;2.60;;;1.00;;
11111;SDS011;5609;49.466;8.468;2024-03-23T13:58:17;1.60;;;0.90;;
11111;SDS011;5609;49.466;8.468;2024-03-23T14:00:45;2.00;;;1.10;;
11111;SDS011;5609;49.466;8.468;2024-03-23T14:03:13;2.00;;;0.90;;
11111;SDS011;5609;49.466;8.468;2024-03-23T14:05:39;1.33;;;0.90;;
11111;SDS011;5609;49.466;8.468;2024-03-23T14:08:07;2.23;;;1.00;;
11111;SDS011;5609;49.466;8.468;2024-03-23T14:10:33;3.33;;;1.23;;
11111;SDS011;5609;49.466;8.468;2024-03-23T14:13:01;3.13;;;1.30;;
11111;SDS011;5609;49.466;8.468;2024-03-23T14:15:27;2.33;;;0.97;;
11111;SDS011;5609;49.466;8.468;2024-03-23T14:17:55;4.87;;;1.53;;
11111;SDS011;5609;49.466;8.468;2024-03-23T14:20:22;2.57;;;0.97;;
11111;SDS011;5609;49.466;8.468;2024-03-23T14:22:50;3.47;;;1.10;;
11111;SDS011;5609;49.466;8.468;2024-03-23T14:25:16;5.63;;;1.30;;
11111;SDS011;5609;49.466;8.468;2024-03-23T14:27:43;2.30;;;1.20;;
11111;SDS011;5609;49.466;8.468;2024-03-23T14:30:10;1.87;;;1.07;;
11111;SDS011;5609;49.466;8.468;2024-03-23T14:32:38;3.77;;;1.27;;
11111;SDS011;5609;49.466;8.468;2024-03-23T14:35:04;2.17;;;1.10;;
11111;SDS011;5609;49.466;8.468;2024-03-23T14:37:33;2.77;;;1.00;;
11111;SDS011;5609;49.466;8.468;2024-03-23T14:39:59;2.70;;;1.00;;
11111;SDS011;5609;49.466;8.468;2024-03-23T14:42:27;3.80;;;1.20;;
11111;SDS011;5609;49.466;8.468;2024-03-23T14:44:53;1.17;;;0.87;;
11111;SDS011;5609;49.466;8.468;2024-03-23T14:47:20;2.63;;;1.00;;
11111;SDS011;5609;49.466;8.468;2024-03-23T14:49:46;2.17;;;0.97;;
11111;SDS011;5609;49.466;8.468;2024-03-23T14:52:15;2.50;;;1.17;;
11111;SDS011;5609;49.466;8.468;2024-03-23T14:54:42;3.03;;;1.20;;
11111;SDS011;5609;49.466;8.468;2024-03-23T14:57:09;2.17;;;0.90;;
11111;SDS011;5609;49.466;8.468;2024-03-23T14:59:36;3.73;;;1.20;;
11111;SDS011;5609;49.466;8.468;2024-03-23T15:02:03;2.10;;;1.10;;
11111;SDS011;5609;49.466;8.468;2024-03-23T15:04:29;1.90;;;0.90;;
11111;SDS011;5609;49.466;8.468;2024-03-23T15:06:59;1.63;;;1.20;;
11111;SDS011;5609;49.466;8.468;2024-03-23T15:09:25;3.07;;;1.00;;
11111;SDS011;5609;49.466;8.468;2024-03-23T15:11:54;1.43;;;0.90;;
11111;SDS011;5609;49.466;8.468;2024-03-23T15:14:20;1.40;;;0.90;;
11111;SDS011;5609;49.466;8.468;2024-03-23T15:16:47;3.50;;;1.30;;
11111;SDS011;5609;49.466;8.468;2024-03-23T15:19:14;2.37;;;0.80;;
11111;SDS011;5609;49.466;8.468;2024-03-23T15:21:42;1.40;;;1.00;;
11111;SDS011;5609;49.466;8.468;2024-03-23T15:24:08;1.97;;;1.00;;
11111;SDS011;5609;49.466;8.468;2024-03-23T15:26:35;3.07;;;1.10;;
11111;SDS011;5609;49.466;8.468;2024-03-23T15:29:04;1.70;;;1.10;;
11111;SDS011;5609;49.466;8.468;2024-03-23T15:31:36;1.90;;;1.00;;
11111;SDS011;5609;49.466;8.468;2024-03-23T15:34:03;1.93;;;0.83;;
11111;SDS011;5609;49.466;8.468;2024-03-23T15:36:35;1.60;;;0.77;;
11111;SDS011;5609;49.466;8.468;2024-03-23T15:39:02;2.47;;;0.93;;
11111;SDS011;5609;49.466;8.468;2024-03-23T15:41:29;1.57;;;1.03;;
11111;SDS011;5609;49.466;8.468;2024-03-23T15:43:56;3.00;;;1.07;;
11111;SDS011;5609;49.466;8.468;2024-03-23T15:46:24;1.83;;;0.93;;
11111;SDS011;5609;49.466;8.468;2024-03-23T15:48:50;1.93;;;0.97;;
11111;SDS011;5609;49.466;8.468;2024-03-23T15:51:17;1.30;;;0.80;;
11111;SDS011;5609;49.466;8.468;2024-03-23T15:53:46;0.97;;;0.70;;
11111;SDS011;5609;49.466;8.468;2024-03-23T15:56:12;0.90;;;0.50;;
11111;SDS011;5609;49.466;8.468;2024-03-23T15:58:39;1.03;;;0.50;;